San Diego Bridge — 3FTY6 — position and weather

sailwx.info

Track history (hours):
 
Tides and Currents Weather Stations Pressure Air Temp Water Temp Dewpoint Dewpoint Depression Visibility Wind Speed Wind Dir Waves Ship Positions

San Diego Bridge

Last reported at 2018-Jun-18 22:18 UTC. Time now 2018-Jun-20 02:05 UTC.
Position N 41°15' W 129°15'.

Length 293 m; draft 10.4 m.

Type: Ship (hazmat cat B). MMSI: 357547000.

Date/timePositionNaut miles runAvg speedWind from/ knotsBaromVisibWave heightAir tempDewpointWater temp
2018-Jun-18 22:18N 41°15' W 129°15'618.4
2018-Jun-18 21:58N 41°12' W 129°09'1429.8
2018-Jun-18 21:30N 41°04' W 128°53'7 9.1
2018-Jun-18 20:45N 40°60' W 128°46'416.6
2018-Jun-18 20:30N 40°58' W 128°41'1318.4
2018-Jun-18 19:49N 40°51' W 128°27'618.1
2018-Jun-18 19:29N 40°48' W 128°20'918.0
2018-Jun-18 18:59N 40°43' W 128°11'1218.1
2018-Jun-18 18:20N 40°36' W 127°58'1018.0
2018-Jun-18 17:46N 40°30' W 127°47'1417.9
2018-Jun-18 17:01N 40°22' W 127°32'518.0
2018-Jun-18 16:43N 40°19' W 127°27'3517.9
2018-Jun-18 14:47N 39°59' W 126°50'518.3
2018-Jun-18 14:30N 39°57' W 126°44'918.0
2018-Jun-18 14:00N 39°52' W 126°34'917.3
2018-Jun-18 13:30N 39°48' W 126°24'917.5
2018-Jun-18 13:00N 39°42' W 126°15'1017.5
2018-Jun-18 12:26N 39°37' W 126°04'717.4
2018-Jun-18 12:00N 39°33' W 125°56'917.6
2018-Jun-18 11:30N 39°28' W 125°47'1117.8
2018-Jun-18 10:55N 39°22' W 125°36'718.0
2018-Jun-18 10:30N 39°17' W 125°28'8318.3
2018-Jun-18 05:57N 38°30' W 123°60'817.8
2018-Jun-18 05:29N 38°26' W 123°51'917.6
2018-Jun-18 05:00N 38°21' W 123°42'917.6
2018-Jun-18 04:30N 38°16' W 123°33'917.5
2018-Jun-18 04:00N 38°11' W 123°24'917.6
2018-Jun-18 03:30N 38°05' W 123°16'918.2
2018-Jun-18 03:00N 37°58' W 123°08'918.7
2018-Jun-18 02:30N 37°54' W 122°58'918.3
2018-Jun-18 02:00N 37°49' W 122°48'713.1
2018-Jun-18 01:30N 37°45' W 122°41'612.1
2018-Jun-18 01:01N 37°48' W 122°33'714.2
2018-Jun-18 00:30N 37°50' W 122°25'510.6
2018-Jun-18 00:00N 37°48' W 122°19'2 3.1
2018-Jun-17 23:31N 37°48' W 122°17'1 2.4
2018-Jun-17 22:59N 37°48' W 122°19'0 0.0
2018-Jun-17 22:26N 37°48' W 122°19'0 0.0
2018-Jun-17 21:56N 37°48' W 122°19'0 0.0
2018-Jun-17 21:26N 37°48' W 122°19'0 0.0
2018-Jun-17 20:59N 37°48' W 122°19'0 0.0
2018-Jun-17 20:26N 37°48' W 122°19'0 0.0
2018-Jun-17 19:56N 37°48' W 122°19'0 0.0
2018-Jun-17 19:26N 37°48' W 122°19'0 0.0
2018-Jun-17 18:56N 37°48' W 122°19'0 0.0
2018-Jun-17 18:26N 37°48' W 122°19'0 0.0
2018-Jun-17 17:59N 37°48' W 122°19'0 0.0
2018-Jun-17 17:26N 37°48' W 122°19'0 0.0
2018-Jun-17 16:56N 37°48' W 122°19'0 0.0
2018-Jun-17 16:26N 37°48' W 122°19'0 0.0
2018-Jun-17 15:59N 37°48' W 122°19'0 0.0
2018-Jun-17 15:29N 37°48' W 122°19'0 0.0
2018-Jun-17 14:59N 37°48' W 122°19'0 0.0
2018-Jun-17 14:29N 37°48' W 122°19'0 0.0
2018-Jun-17 13:59N 37°48' W 122°19'0 0.0
2018-Jun-17 13:29N 37°48' W 122°19'0 0.0
2018-Jun-17 13:01N 37°48' W 122°19'0 0.2
2018-Jun-17 12:30N 37°48' W 122°19'2 4.6
2018-Jun-17 12:00N 37°48' W 122°22'3 5.8
2018-Jun-17 11:30N 37°49' W 122°25'3 6.9
2018-Jun-17 11:01N 37°49' W 122°30'611.1
2018-Jun-17 10:31N 37°46' W 122°36'5 9.9
2018-Jun-17 10:00N 37°43' W 122°41'511.3
2018-Jun-17 09:31N 37°37' W 122°40'714.8
2018-Jun-17 09:00N 37°30' W 122°40'815.3
2018-Jun-17 08:30N 37°22' W 122°40'816.4
2018-Jun-17 08:00N 37°14' W 122°40'1019.8
2018-Jun-17 07:30N 37°04' W 122°37'1121.5
2018-Jun-17 07:00N 36°54' W 122°31'1121.6
2018-Jun-17 06:28N 36°44' W 122°26'1021.4
2018-Jun-17 06:00N 36°35' W 122°21'1020.5
2018-Jun-17 05:30N 36°25' W 122°17'1121.4
2018-Jun-17 05:00N 36°16' W 122°11'1121.5
2018-Jun-17 04:30N 36°07' W 122°04'1120.9
2018-Jun-17 04:00N 35°58' W 121°57'1121.3
2018-Jun-17 03:30N 35°49' W 121°50'1122.1
2018-Jun-17 03:00N 35°39' W 121°44'1620.8
2018-Jun-17 02:14N 35°25' W 121°34'521.4
2018-Jun-17 02:00N 35°21' W 121°31'1020.9
2018-Jun-17 01:30N 35°12' W 121°24'1220.6
2018-Jun-17 00:56N 35°02' W 121°17'920.1
2018-Jun-17 00:30N 34°54' W 121°12'1020.5
2018-Jun-17 00:00N 34°45' W 121°05'1120.9
2018-Jun-16 23:30N 34°36' W 120°58'1020.7
2018-Jun-16 23:00N 34°27' W 120°52'1019.4
2018-Jun-16 22:29N 34°24' W 120°41'1121.1
2018-Jun-16 21:59N 34°21' W 120°28'1021.1
2018-Jun-16 21:30N 34°19' W 120°16'1120.5
2018-Jun-16 20:59N 34°15' W 120°04'1020.7
2018-Jun-16 20:30N 34°13' W 119°53'1120.3
2018-Jun-16 19:57N 34°10' W 119°40'918.3
2018-Jun-16 19:29N 34°08' W 119°29'916.3
2018-Jun-16 18:58N 34°05' W 119°20'613.6
2018-Jun-16 18:30N 34°03' W 119°12'712.9
2018-Jun-16 17:59N 33°60' W 119°05'611.7
2018-Jun-16 17:30N 33°57' W 118°60'611.2
2018-Jun-16 17:00N 33°54' W 118°54'611.3
2018-Jun-16 16:30N 33°51' W 118°48'611.3
2018-Jun-16 16:00N 33°49' W 118°42'611.6
2018-Jun-16 15:30N 33°46' W 118°36'611.7
2018-Jun-16 15:00N 33°43' W 118°30'611.5
2018-Jun-16 14:30N 33°40' W 118°24'611.0
2018-Jun-16 14:00N 33°39' W 118°17'4 8.4
2018-Jun-16 13:30N 33°42' W 118°14'3 5.6
2018-Jun-16 13:00N 33°44' W 118°17'2 3.0
2018-Jun-16 12:30N 33°46' W 118°16'0 0.0
2018-Jun-16 11:58N 33°46' W 118°16'0 0.0
2018-Jun-16 11:28N 33°46' W 118°16'0 0.0
2018-Jun-16 10:58N 33°46' W 118°16'0 0.1
2018-Jun-16 10:28N 33°46' W 118°16'0 0.1
2018-Jun-16 09:58N 33°46' W 118°16'0 0.0
2018-Jun-16 09:28N 33°46' W 118°16'0 0.0
2018-Jun-16 08:58N 33°46' W 118°16'0 0.0
2018-Jun-16 08:28N 33°46' W 118°16'0 0.0
2018-Jun-16 07:58N 33°46' W 118°16'0 0.0
2018-Jun-16 07:28N 33°46' W 118°16'0 0.0
2018-Jun-16 06:55N 33°46' W 118°16'0 0.1
2018-Jun-16 06:28N 33°46' W 118°16'0 0.1
2018-Jun-16 05:58N 33°46' W 118°16'0 0.0
2018-Jun-16 05:28N 33°46' W 118°16'0 0.0
2018-Jun-16 04:58N 33°46' W 118°16'0 0.0
2018-Jun-16 04:28N 33°46' W 118°16'0 0.0
2018-Jun-16 03:58N 33°46' W 118°16'0 0.0
2018-Jun-16 03:28N 33°46' W 118°16'0 0.0
2018-Jun-16 02:58N 33°46' W 118°16'0 0.0
2018-Jun-16 02:28N 33°46' W 118°16'0 0.1
2018-Jun-16 01:58N 33°46' W 118°16'0 0.0
2018-Jun-16 01:28N 33°46' W 118°16'0 0.1
2018-Jun-16 00:58N 33°46' W 118°16'0 0.1
2018-Jun-16 00:28N 33°46' W 118°16'0 0.1
2018-Jun-15 23:58N 33°46' W 118°16'0 0.1
2018-Jun-15 23:28N 33°46' W 118°16'0 0.1
2018-Jun-15 22:58N 33°46' W 118°16'0 0.1
2018-Jun-15 22:28N 33°46' W 118°16'0 0.1
2018-Jun-15 21:58N 33°46' W 118°16'0 0.0
2018-Jun-15 21:28N 33°46' W 118°16'0 0.1
2018-Jun-15 20:58N 33°46' W 118°16'0 0.1
2018-Jun-15 20:28N 33°46' W 118°16'0 0.0
2018-Jun-15 19:58N 33°46' W 118°16'0 0.1
2018-Jun-15 19:28N 33°46' W 118°16'0 0.1
2018-Jun-15 18:58N 33°46' W 118°16'0 0.0
2018-Jun-15 18:28N 33°46' W 118°16'0 0.0
2018-Jun-15 17:58N 33°46' W 118°16'0 0.0
2018-Jun-15 17:28N 33°46' W 118°16'0 0.0
2018-Jun-15 16:58N 33°46' W 118°16'0 0.0
2018-Jun-15 16:28N 33°46' W 118°16'0 0.0
2018-Jun-15 15:58N 33°46' W 118°16'0 0.1
2018-Jun-15 15:28N 33°46' W 118°16'0 0.0
2018-Jun-15 14:58N 33°46' W 118°16'0 0.1
2018-Jun-15 14:28N 33°46' W 118°16'0 0.0
2018-Jun-15 13:58N 33°46' W 118°16'0 0.1
2018-Jun-15 13:28N 33°46' W 118°16'0 0.0
2018-Jun-15 12:58N 33°46' W 118°16'0 0.1
2018-Jun-15 12:25N 33°46' W 118°16'0 0.0
2018-Jun-15 11:58N 33°46' W 118°16'0 0.0
2018-Jun-15 11:28N 33°46' W 118°16'0 0.0
2018-Jun-15 10:58N 33°46' W 118°16'0 0.1
2018-Jun-15 10:28N 33°46' W 118°16'0 0.0
2018-Jun-15 09:58N 33°46' W 118°16'0 0.0
2018-Jun-15 09:28N 33°46' W 118°16'0 0.1
2018-Jun-15 08:58N 33°46' W 118°16'0 0.1
2018-Jun-15 08:28N 33°46' W 118°16'0 0.0
2018-Jun-15 07:58N 33°46' W 118°16'0 0.0
2018-Jun-15 07:28N 33°46' W 118°16'0 0.0
2018-Jun-15 06:58N 33°46' W 118°16'0 0.0
2018-Jun-15 06:25N 33°46' W 118°16'0 0.0
2018-Jun-15 05:58N 33°46' W 118°16'0 0.0
2018-Jun-15 05:28N 33°46' W 118°16'0 0.0
2018-Jun-15 04:58N 33°46' W 118°16'0 0.1
2018-Jun-15 04:28N 33°46' W 118°16'0 0.0
2018-Jun-15 03:58N 33°46' W 118°16'0 0.0
2018-Jun-15 03:28N 33°46' W 118°16'0 0.1
2018-Jun-15 02:58N 33°46' W 118°16'0 0.0
2018-Jun-15 02:28N 33°46' W 118°16'0 0.0
2018-Jun-15 01:58N 33°46' W 118°16'0 0.0
2018-Jun-15 01:28N 33°46' W 118°16'0 0.0
2018-Jun-15 00:58N 33°46' W 118°16'0 0.0
2018-Jun-15 00:28N 33°46' W 118°16'0 0.0
2018-Jun-14 23:58N 33°46' W 118°16'0 0.0
2018-Jun-14 23:28N 33°46' W 118°16'0 0.0
2018-Jun-14 22:58N 33°46' W 118°16'0 0.1
2018-Jun-14 22:28N 33°46' W 118°16'0 0.1
2018-Jun-14 21:58N 33°46' W 118°16'0 0.1
2018-Jun-14 21:28N 33°46' W 118°16'0 0.1
2018-Jun-14 20:58N 33°46' W 118°16'0 0.0
2018-Jun-14 20:28N 33°46' W 118°16'0 0.0
2018-Jun-14 19:58N 33°46' W 118°16'0 0.1
2018-Jun-14 19:28N 33°46' W 118°16'0 0.0
2018-Jun-14 18:58N 33°46' W 118°16'0 0.1
2018-Jun-14 18:28N 33°46' W 118°16'0 0.0
2018-Jun-14 17:58N 33°46' W 118°16'0 0.0
2018-Jun-14 17:28N 33°46' W 118°16'0 0.0
2018-Jun-14 16:58N 33°46' W 118°16'0 0.0
2018-Jun-14 16:28N 33°46' W 118°16'0 0.0
2018-Jun-14 15:58N 33°46' W 118°16'0 0.0
2018-Jun-14 15:28N 33°46' W 118°16'0 0.1
2018-Jun-14 14:58N 33°46' W 118°16'0 0.1
2018-Jun-14 14:28N 33°46' W 118°16'0 0.1
2018-Jun-14 13:58N 33°46' W 118°16'0 0.1
2018-Jun-14 13:28N 33°46' W 118°16'0 0.0
2018-Jun-14 12:58N 33°46' W 118°16'0 0.0
2018-Jun-14 12:28N 33°46' W 118°16'0 0.0
2018-Jun-14 11:58N 33°46' W 118°16'0 0.1
2018-Jun-14 11:28N 33°46' W 118°16'0 0.0
2018-Jun-14 10:58N 33°46' W 118°16'0 0.1
2018-Jun-14 10:28N 33°46' W 118°16'0 0.0
2018-Jun-14 09:58N 33°46' W 118°16'0 0.0
2018-Jun-14 09:28N 33°46' W 118°16'0 0.0
2018-Jun-14 08:58N 33°46' W 118°16'0 0.0
2018-Jun-14 08:28N 33°46' W 118°16'0 0.0
2018-Jun-14 07:58N 33°46' W 118°16'0 0.0
2018-Jun-14 07:28N 33°46' W 118°16'0 0.1
2018-Jun-14 06:58N 33°46' W 118°16'0 0.0
2018-Jun-14 06:28N 33°46' W 118°16'0 0.0
2018-Jun-14 05:58N 33°46' W 118°16'0 0.1
2018-Jun-14 05:28N 33°46' W 118°16'0 0.0
2018-Jun-14 04:58N 33°46' W 118°16'0 0.0
2018-Jun-14 04:28N 33°46' W 118°16'0 0.0
2018-Jun-14 03:58N 33°46' W 118°16'0 0.0
2018-Jun-14 03:28N 33°46' W 118°16'0 0.0
2018-Jun-14 02:58N 33°46' W 118°16'0 0.0
2018-Jun-14 02:28N 33°46' W 118°16'0 0.0
2018-Jun-14 01:58N 33°46' W 118°16'0 0.0
2018-Jun-14 01:28N 33°46' W 118°16'0 0.0
2018-Jun-14 00:58N 33°46' W 118°16'0 0.0
2018-Jun-14 00:28N 33°46' W 118°16'0 0.0
2018-Jun-13 23:58N 33°46' W 118°16'0 0.0
2018-Jun-13 23:28N 33°46' W 118°16'0 0.0
2018-Jun-13 22:58N 33°46' W 118°16'0 0.0
2018-Jun-13 22:28N 33°46' W 118°16'0 0.0
2018-Jun-13 21:58N 33°46' W 118°16'0 0.1
2018-Jun-13 21:25N 33°46' W 118°16'0 0.1
2018-Jun-13 20:58N 33°46' W 118°16'0 0.0
2018-Jun-13 20:28N 33°46' W 118°16'0 0.0
2018-Jun-13 19:58N 33°46' W 118°16'0 0.1
2018-Jun-13 19:28N 33°46' W 118°16'0 0.1
2018-Jun-13 18:58N 33°46' W 118°16'0 0.0
2018-Jun-13 18:28N 33°46' W 118°16'0 0.0
2018-Jun-13 17:58N 33°46' W 118°16'0 0.0
2018-Jun-13 17:28N 33°46' W 118°16'0 0.0
2018-Jun-13 16:58N 33°46' W 118°16'0 0.0
2018-Jun-13 16:28N 33°46' W 118°16'0 0.0
2018-Jun-13 15:55N 33°46' W 118°16'0 0.0
2018-Jun-13 15:28N 33°46' W 118°16'0 0.0
2018-Jun-13 14:58N 33°46' W 118°16'0 0.0
2018-Jun-13 14:28N 33°46' W 118°16'0 0.0
2018-Jun-13 13:58N 33°46' W 118°16'0 0.1
2018-Jun-13 13:28N 33°46' W 118°16'0 0.1
2018-Jun-13 12:58N 33°46' W 118°16'0 0.0
2018-Jun-13 12:28N 33°46' W 118°16'0 0.0
2018-Jun-13 11:58N 33°46' W 118°16'0 0.1
2018-Jun-13 11:28N 33°46' W 118°16'0 0.1
2018-Jun-13 10:58N 33°46' W 118°16'0 0.0
2018-Jun-13 10:28N 33°46' W 118°16'0 0.0
2018-Jun-13 09:58N 33°46' W 118°16'0 0.0
2018-Jun-13 09:28N 33°46' W 118°16'0 0.0
2018-Jun-13 08:58N 33°46' W 118°16'0 0.0
2018-Jun-13 08:28N 33°46' W 118°16'0 0.0
2018-Jun-13 07:58N 33°46' W 118°16'0 0.0
2018-Jun-13 07:28N 33°46' W 118°16'0 0.0
2018-Jun-13 06:58N 33°46' W 118°16'0 0.0
2018-Jun-13 06:28N 33°46' W 118°16'0 0.0
2018-Jun-13 05:58N 33°46' W 118°16'0 0.1
2018-Jun-13 05:28N 33°46' W 118°16'0 0.0
2018-Jun-13 04:58N 33°46' W 118°16'0 0.1
2018-Jun-13 04:28N 33°46' W 118°16'0 0.0
2018-Jun-13 03:58N 33°46' W 118°16'0 0.0
2018-Jun-13 03:28N 33°46' W 118°16'0 0.0
2018-Jun-13 02:58N 33°46' W 118°16'0 0.0
2018-Jun-13 02:28N 33°46' W 118°16'0 0.0
2018-Jun-13 01:58N 33°46' W 118°16'0 0.0
2018-Jun-13 01:28N 33°46' W 118°16'0 0.0
2018-Jun-13 00:58N 33°46' W 118°16'0 0.0
2018-Jun-13 00:28N 33°46' W 118°16'0 0.0
2018-Jun-12 23:58N 33°46' W 118°16'0 0.1
2018-Jun-12 23:28N 33°46' W 118°16'0 0.1
2018-Jun-12 22:58N 33°46' W 118°16'0 0.0
2018-Jun-12 22:28N 33°46' W 118°16'0 0.0
2018-Jun-12 21:58N 33°46' W 118°16'0 0.0
2018-Jun-12 21:28N 33°46' W 118°16'0 0.0
2018-Jun-12 20:58N 33°46' W 118°16'0 0.0
2018-Jun-12 20:28N 33°46' W 118°16'0 0.1
2018-Jun-12 19:58N 33°46' W 118°16'0 0.0
2018-Jun-12 19:28N 33°46' W 118°16'0 0.0
2018-Jun-12 18:58N 33°46' W 118°16'0 0.1
2018-Jun-12 18:28N 33°46' W 118°16'0 0.0
2018-Jun-12 17:58N 33°46' W 118°16'0 0.0
2018-Jun-12 17:28N 33°46' W 118°16'0 0.0
2018-Jun-12 16:58N 33°46' W 118°16'0 0.0
2018-Jun-12 16:28N 33°46' W 118°16'0 0.0
2018-Jun-12 15:58N 33°46' W 118°16'0 0.1
2018-Jun-12 15:28N 33°46' W 118°16'0 0.1
2018-Jun-12 14:58N 33°46' W 118°16'0 0.0
2018-Jun-12 14:28N 33°46' W 118°16'0 0.0
2018-Jun-12 13:58N 33°46' W 118°16'0 0.0
2018-Jun-12 13:28N 33°46' W 118°16'0 0.0
2018-Jun-12 12:58N 33°46' W 118°16'0 0.0
2018-Jun-12 12:31N 33°46' W 118°16'0 0.5
2018-Jun-12 12:00N 33°45' W 118°17'1 2.1
2018-Jun-12 11:30N 33°44' W 118°17'3 6.3
2018-Jun-12 11:01N 33°42' W 118°14'4 7.8
2018-Jun-12 10:30N 33°38' W 118°14'4 8.5
2018-Jun-12 10:00N 33°36' W 118°18'510.9
2018-Jun-12 09:30N 33°38' W 118°25'713.2
2018-Jun-12 09:00N 33°41' W 118°31'612.3
2018-Jun-12 08:30N 33°44' W 118°38'612.4
2018-Jun-12 08:00N 33°47' W 118°44'713.2
2018-Jun-12 07:30N 33°51' W 118°52'612.9
2018-Jun-12 07:00N 33°54' W 118°58'613.3
2018-Jun-12 06:30N 33°57' W 119°05'713.7
2018-Jun-12 06:00N 34°00' W 119°12'815.0
2018-Jun-12 05:29N 34°03' W 119°21'715.0
2018-Jun-12 05:00N 34°06' W 119°29'713.9
2018-Jun-12 04:30N 34°07' W 119°37'814.6
2018-Jun-12 03:58N 34°09' W 119°46'715.2
2018-Jun-12 03:30N 34°11' W 119°55'714.3
2018-Jun-12 03:00N 34°13' W 120°03'713.9
2018-Jun-12 02:30N 34°15' W 120°11'713.9
2018-Jun-12 02:00N 34°17' W 120°19'714.0
2018-Jun-12 01:30N 34°19' W 120°27'814.1
2018-Jun-12 00:58N 34°21' W 120°36'613.7
2018-Jun-12 00:30N 34°22' W 120°44'612.3
2018-Jun-12 00:00N 34°24' W 120°51'713.5
2018-Jun-11 23:29N 34°28' W 120°58'714.0
2018-Jun-11 23:00N 34°32' W 121°04'714.2
2018-Jun-11 22:30N 34°37' W 121°11'714.0
2018-Jun-11 22:00N 34°41' W 121°18'713.7
2018-Jun-11 21:30N 34°45' W 121°25'713.7
2018-Jun-11 21:00N 34°49' W 121°31'714.0
2018-Jun-11 20:30N 34°53' W 121°38'714.1
2018-Jun-11 20:00N 34°57' W 121°45'918.5
2018-Jun-11 19:30N 35°03' W 121°54'1019.6
2018-Jun-11 19:00N 35°09' W 122°04'816.7
2018-Jun-11 18:31N 35°14' W 122°11'1 2.2
2018-Jun-11 18:00N 35°14' W 122°13'2 4.2
2018-Jun-11 17:30N 35°15' W 122°15'5 9.4
2018-Jun-11 17:00N 35°18' W 122°20'1018.3
2018-Jun-11 16:29N 35°23' W 122°30'1022.0
2018-Jun-11 16:00N 35°29' W 122°40'  
Track history (hours):
 
Tides and Currents Weather Stations Pressure Air Temp Water Temp Dewpoint Dewpoint Depression Visibility Wind Speed Wind Dir Waves Ship Positions

San Diego Bridge

Last reported at 2018-Jun-18 22:18 UTC. Time now 2018-Jun-20 02:05 UTC.
Position N 41°15' W 129°15'.

Length 293 m; draft 10.4 m.

Type: Ship (hazmat cat B). MMSI: 357547000.

Date/timePositionNaut miles runAvg speedWind from/ knotsBaromVisibWave heightAir tempDewpointWater temp
2018-Jun-18 22:18N 41°15' W 129°15'618.4
2018-Jun-18 21:58N 41°12' W 129°09'1429.8
2018-Jun-18 21:30N 41°04' W 128°53'7 9.1
2018-Jun-18 20:45N 40°60' W 128°46'416.6
2018-Jun-18 20:30N 40°58' W 128°41'1318.4
2018-Jun-18 19:49N 40°51' W 128°27'618.1
2018-Jun-18 19:29N 40°48' W 128°20'918.0
2018-Jun-18 18:59N 40°43' W 128°11'1218.1
2018-Jun-18 18:20N 40°36' W 127°58'1018.0
2018-Jun-18 17:46N 40°30' W 127°47'1417.9
2018-Jun-18 17:01N 40°22' W 127°32'518.0
2018-Jun-18 16:43N 40°19' W 127°27'3517.9
2018-Jun-18 14:47N 39°59' W 126°50'518.3
2018-Jun-18 14:30N 39°57' W 126°44'918.0
2018-Jun-18 14:00N 39°52' W 126°34'917.3
2018-Jun-18 13:30N 39°48' W 126°24'917.5
2018-Jun-18 13:00N 39°42' W 126°15'1017.5
2018-Jun-18 12:26N 39°37' W 126°04'717.4
2018-Jun-18 12:00N 39°33' W 125°56'917.6
2018-Jun-18 11:30N 39°28' W 125°47'1117.8
2018-Jun-18 10:55N 39°22' W 125°36'718.0
2018-Jun-18 10:30N 39°17' W 125°28'8318.3
2018-Jun-18 05:57N 38°30' W 123°60'817.8
2018-Jun-18 05:29N 38°26' W 123°51'917.6
2018-Jun-18 05:00N 38°21' W 123°42'917.6
2018-Jun-18 04:30N 38°16' W 123°33'917.5
2018-Jun-18 04:00N 38°11' W 123°24'917.6
2018-Jun-18 03:30N 38°05' W 123°16'918.2
2018-Jun-18 03:00N 37°58' W 123°08'918.7
2018-Jun-18 02:30N 37°54' W 122°58'918.3
2018-Jun-18 02:00N 37°49' W 122°48'713.1
2018-Jun-18 01:30N 37°45' W 122°41'612.1
2018-Jun-18 01:01N 37°48' W 122°33'714.2
2018-Jun-18 00:30N 37°50' W 122°25'510.6
2018-Jun-18 00:00N 37°48' W 122°19'2 3.1
2018-Jun-17 23:31N 37°48' W 122°17'1 2.4
2018-Jun-17 22:59N 37°48' W 122°19'0 0.0
2018-Jun-17 22:26N 37°48' W 122°19'0 0.0
2018-Jun-17 21:56N 37°48' W 122°19'0 0.0
2018-Jun-17 21:26N 37°48' W 122°19'0 0.0
2018-Jun-17 20:59N 37°48' W 122°19'0 0.0
2018-Jun-17 20:26N 37°48' W 122°19'0 0.0
2018-Jun-17 19:56N 37°48' W 122°19'0 0.0
2018-Jun-17 19:26N 37°48' W 122°19'0 0.0
2018-Jun-17 18:56N 37°48' W 122°19'0 0.0
2018-Jun-17 18:26N 37°48' W 122°19'0 0.0
2018-Jun-17 17:59N 37°48' W 122°19'0 0.0
2018-Jun-17 17:26N 37°48' W 122°19'0 0.0
2018-Jun-17 16:56N 37°48' W 122°19'0 0.0
2018-Jun-17 16:26N 37°48' W 122°19'0 0.0
2018-Jun-17 15:59N 37°48' W 122°19'0 0.0
2018-Jun-17 15:29N 37°48' W 122°19'0 0.0
2018-Jun-17 14:59N 37°48' W 122°19'0 0.0
2018-Jun-17 14:29N 37°48' W 122°19'0 0.0
2018-Jun-17 13:59N 37°48' W 122°19'0 0.0
2018-Jun-17 13:29N 37°48' W 122°19'0 0.0
2018-Jun-17 13:01N 37°48' W 122°19'0 0.2
2018-Jun-17 12:30N 37°48' W 122°19'2 4.6
2018-Jun-17 12:00N 37°48' W 122°22'3 5.8
2018-Jun-17 11:30N 37°49' W 122°25'3 6.9
2018-Jun-17 11:01N 37°49' W 122°30'611.1
2018-Jun-17 10:31N 37°46' W 122°36'5 9.9
2018-Jun-17 10:00N 37°43' W 122°41'511.3
2018-Jun-17 09:31N 37°37' W 122°40'714.8
2018-Jun-17 09:00N 37°30' W 122°40'815.3
2018-Jun-17 08:30N 37°22' W 122°40'816.4
2018-Jun-17 08:00N 37°14' W 122°40'1019.8
2018-Jun-17 07:30N 37°04' W 122°37'1121.5
2018-Jun-17 07:00N 36°54' W 122°31'1121.6
2018-Jun-17 06:28N 36°44' W 122°26'1021.4
2018-Jun-17 06:00N 36°35' W 122°21'1020.5
2018-Jun-17 05:30N 36°25' W 122°17'1121.4
2018-Jun-17 05:00N 36°16' W 122°11'1121.5
2018-Jun-17 04:30N 36°07' W 122°04'1120.9
2018-Jun-17 04:00N 35°58' W 121°57'1121.3
2018-Jun-17 03:30N 35°49' W 121°50'1122.1
2018-Jun-17 03:00N 35°39' W 121°44'1620.8
2018-Jun-17 02:14N 35°25' W 121°34'521.4
2018-Jun-17 02:00N 35°21' W 121°31'1020.9
2018-Jun-17 01:30N 35°12' W 121°24'1220.6
2018-Jun-17 00:56N 35°02' W 121°17'920.1
2018-Jun-17 00:30N 34°54' W 121°12'1020.5
2018-Jun-17 00:00N 34°45' W 121°05'1120.9
2018-Jun-16 23:30N 34°36' W 120°58'1020.7
2018-Jun-16 23:00N 34°27' W 120°52'1019.4
2018-Jun-16 22:29N 34°24' W 120°41'1121.1
2018-Jun-16 21:59N 34°21' W 120°28'1021.1
2018-Jun-16 21:30N 34°19' W 120°16'1120.5
2018-Jun-16 20:59N 34°15' W 120°04'1020.7
2018-Jun-16 20:30N 34°13' W 119°53'1120.3
2018-Jun-16 19:57N 34°10' W 119°40'918.3
2018-Jun-16 19:29N 34°08' W 119°29'916.3
2018-Jun-16 18:58N 34°05' W 119°20'613.6
2018-Jun-16 18:30N 34°03' W 119°12'712.9
2018-Jun-16 17:59N 33°60' W 119°05'611.7
2018-Jun-16 17:30N 33°57' W 118°60'611.2
2018-Jun-16 17:00N 33°54' W 118°54'611.3
2018-Jun-16 16:30N 33°51' W 118°48'611.3
2018-Jun-16 16:00N 33°49' W 118°42'611.6
2018-Jun-16 15:30N 33°46' W 118°36'611.7
2018-Jun-16 15:00N 33°43' W 118°30'611.5
2018-Jun-16 14:30N 33°40' W 118°24'611.0
2018-Jun-16 14:00N 33°39' W 118°17'4 8.4
2018-Jun-16 13:30N 33°42' W 118°14'3 5.6
2018-Jun-16 13:00N 33°44' W 118°17'2 3.0
2018-Jun-16 12:30N 33°46' W 118°16'0 0.0
2018-Jun-16 11:58N 33°46' W 118°16'0 0.0
2018-Jun-16 11:28N 33°46' W 118°16'0 0.0
2018-Jun-16 10:58N 33°46' W 118°16'0 0.1
2018-Jun-16 10:28N 33°46' W 118°16'0 0.1
2018-Jun-16 09:58N 33°46' W 118°16'0 0.0
2018-Jun-16 09:28N 33°46' W 118°16'0 0.0
2018-Jun-16 08:58N 33°46' W 118°16'0 0.0
2018-Jun-16 08:28N 33°46' W 118°16'0 0.0
2018-Jun-16 07:58N 33°46' W 118°16'0 0.0
2018-Jun-16 07:28N 33°46' W 118°16'0 0.0
2018-Jun-16 06:55N 33°46' W 118°16'0 0.1
2018-Jun-16 06:28N 33°46' W 118°16'0 0.1
2018-Jun-16 05:58N 33°46' W 118°16'0 0.0
2018-Jun-16 05:28N 33°46' W 118°16'0 0.0
2018-Jun-16 04:58N 33°46' W 118°16'0 0.0
2018-Jun-16 04:28N 33°46' W 118°16'0 0.0
2018-Jun-16 03:58N 33°46' W 118°16'0 0.0
2018-Jun-16 03:28N 33°46' W 118°16'0 0.0
2018-Jun-16 02:58N 33°46' W 118°16'0 0.0
2018-Jun-16 02:28N 33°46' W 118°16'0 0.1
2018-Jun-16 01:58N 33°46' W 118°16'0 0.0
2018-Jun-16 01:28N 33°46' W 118°16'0 0.1
2018-Jun-16 00:58N 33°46' W 118°16'0 0.1
2018-Jun-16 00:28N 33°46' W 118°16'0 0.1
2018-Jun-15 23:58N 33°46' W 118°16'0 0.1
2018-Jun-15 23:28N 33°46' W 118°16'0 0.1
2018-Jun-15 22:58N 33°46' W 118°16'0 0.1
2018-Jun-15 22:28N 33°46' W 118°16'0 0.1
2018-Jun-15 21:58N 33°46' W 118°16'0 0.0
2018-Jun-15 21:28N 33°46' W 118°16'0 0.1
2018-Jun-15 20:58N 33°46' W 118°16'0 0.1
2018-Jun-15 20:28N 33°46' W 118°16'0 0.0
2018-Jun-15 19:58N 33°46' W 118°16'0 0.1
2018-Jun-15 19:28N 33°46' W 118°16'0 0.1
2018-Jun-15 18:58N 33°46' W 118°16'0 0.0
2018-Jun-15 18:28N 33°46' W 118°16'0 0.0
2018-Jun-15 17:58N 33°46' W 118°16'0 0.0
2018-Jun-15 17:28N 33°46' W 118°16'0 0.0
2018-Jun-15 16:58N 33°46' W 118°16'0 0.0
2018-Jun-15 16:28N 33°46' W 118°16'0 0.0
2018-Jun-15 15:58N 33°46' W 118°16'0 0.1
2018-Jun-15 15:28N 33°46' W 118°16'0 0.0
2018-Jun-15 14:58N 33°46' W 118°16'0 0.1
2018-Jun-15 14:28N 33°46' W 118°16'0 0.0
2018-Jun-15 13:58N 33°46' W 118°16'0 0.1
2018-Jun-15 13:28N 33°46' W 118°16'0 0.0
2018-Jun-15 12:58N 33°46' W 118°16'0 0.1
2018-Jun-15 12:25N 33°46' W 118°16'0 0.0
2018-Jun-15 11:58N 33°46' W 118°16'0 0.0
2018-Jun-15 11:28N 33°46' W 118°16'0 0.0
2018-Jun-15 10:58N 33°46' W 118°16'0 0.1
2018-Jun-15 10:28N 33°46' W 118°16'0 0.0
2018-Jun-15 09:58N 33°46' W 118°16'0 0.0
2018-Jun-15 09:28N 33°46' W 118°16'0 0.1
2018-Jun-15 08:58N 33°46' W 118°16'0 0.1
2018-Jun-15 08:28N 33°46' W 118°16'0 0.0
2018-Jun-15 07:58N 33°46' W 118°16'0 0.0
2018-Jun-15 07:28N 33°46' W 118°16'0 0.0
2018-Jun-15 06:58N 33°46' W 118°16'0 0.0
2018-Jun-15 06:25N 33°46' W 118°16'0 0.0
2018-Jun-15 05:58N 33°46' W 118°16'0 0.0
2018-Jun-15 05:28N 33°46' W 118°16'0 0.0
2018-Jun-15 04:58N 33°46' W 118°16'0 0.1
2018-Jun-15 04:28N 33°46' W 118°16'0 0.0
2018-Jun-15 03:58N 33°46' W 118°16'0 0.0
2018-Jun-15 03:28N 33°46' W 118°16'0 0.1
2018-Jun-15 02:58N 33°46' W 118°16'0 0.0
2018-Jun-15 02:28N 33°46' W 118°16'0 0.0
2018-Jun-15 01:58N 33°46' W 118°16'0 0.0
2018-Jun-15 01:28N 33°46' W 118°16'0 0.0
2018-Jun-15 00:58N 33°46' W 118°16'0 0.0
2018-Jun-15 00:28N 33°46' W 118°16'0 0.0
2018-Jun-14 23:58N 33°46' W 118°16'0 0.0
2018-Jun-14 23:28N 33°46' W 118°16'0 0.0
2018-Jun-14 22:58N 33°46' W 118°16'0 0.1
2018-Jun-14 22:28N 33°46' W 118°16'0 0.1
2018-Jun-14 21:58N 33°46' W 118°16'0 0.1
2018-Jun-14 21:28N 33°46' W 118°16'0 0.1
2018-Jun-14 20:58N 33°46' W 118°16'0 0.0
2018-Jun-14 20:28N 33°46' W 118°16'0 0.0
2018-Jun-14 19:58N 33°46' W 118°16'0 0.1
2018-Jun-14 19:28N 33°46' W 118°16'0 0.0
2018-Jun-14 18:58N 33°46' W 118°16'0 0.1
2018-Jun-14 18:28N 33°46' W 118°16'0 0.0
2018-Jun-14 17:58N 33°46' W 118°16'0 0.0
2018-Jun-14 17:28N 33°46' W 118°16'0 0.0
2018-Jun-14 16:58N 33°46' W 118°16'0 0.0
2018-Jun-14 16:28N 33°46' W 118°16'0 0.0
2018-Jun-14 15:58N 33°46' W 118°16'0 0.0
2018-Jun-14 15:28N 33°46' W 118°16'0 0.1
2018-Jun-14 14:58N 33°46' W 118°16'0 0.1
2018-Jun-14 14:28N 33°46' W 118°16'0 0.1
2018-Jun-14 13:58N 33°46' W 118°16'0 0.1
2018-Jun-14 13:28N 33°46' W 118°16'0 0.0
2018-Jun-14 12:58N 33°46' W 118°16'0 0.0
2018-Jun-14 12:28N 33°46' W 118°16'0 0.0
2018-Jun-14 11:58N 33°46' W 118°16'0 0.1
2018-Jun-14 11:28N 33°46' W 118°16'0 0.0
2018-Jun-14 10:58N 33°46' W 118°16'0 0.1
2018-Jun-14 10:28N 33°46' W 118°16'0 0.0
2018-Jun-14 09:58N 33°46' W 118°16'0 0.0
2018-Jun-14 09:28N 33°46' W 118°16'0 0.0
2018-Jun-14 08:58N 33°46' W 118°16'0 0.0
2018-Jun-14 08:28N 33°46' W 118°16'0 0.0
2018-Jun-14 07:58N 33°46' W 118°16'0 0.0
2018-Jun-14 07:28N 33°46' W 118°16'0 0.1
2018-Jun-14 06:58N 33°46' W 118°16'0 0.0
2018-Jun-14 06:28N 33°46' W 118°16'0 0.0
2018-Jun-14 05:58N 33°46' W 118°16'0 0.1
2018-Jun-14 05:28N 33°46' W 118°16'0 0.0
2018-Jun-14 04:58N 33°46' W 118°16'0 0.0
2018-Jun-14 04:28N 33°46' W 118°16'0 0.0
2018-Jun-14 03:58N 33°46' W 118°16'0 0.0
2018-Jun-14 03:28N 33°46' W 118°16'0 0.0
2018-Jun-14 02:58N 33°46' W 118°16'0 0.0
2018-Jun-14 02:28N 33°46' W 118°16'0 0.0
2018-Jun-14 01:58N 33°46' W 118°16'0 0.0
2018-Jun-14 01:28N 33°46' W 118°16'0 0.0
2018-Jun-14 00:58N 33°46' W 118°16'0 0.0
2018-Jun-14 00:28N 33°46' W 118°16'0 0.0
2018-Jun-13 23:58N 33°46' W 118°16'0 0.0
2018-Jun-13 23:28N 33°46' W 118°16'0 0.0
2018-Jun-13 22:58N 33°46' W 118°16'0 0.0
2018-Jun-13 22:28N 33°46' W 118°16'0 0.0
2018-Jun-13 21:58N 33°46' W 118°16'0 0.1
2018-Jun-13 21:25N 33°46' W 118°16'0 0.1
2018-Jun-13 20:58N 33°46' W 118°16'0 0.0
2018-Jun-13 20:28N 33°46' W 118°16'0 0.0
2018-Jun-13 19:58N 33°46' W 118°16'0 0.1
2018-Jun-13 19:28N 33°46' W 118°16'0 0.1
2018-Jun-13 18:58N 33°46' W 118°16'0 0.0
2018-Jun-13 18:28N 33°46' W 118°16'0 0.0
2018-Jun-13 17:58N 33°46' W 118°16'0 0.0
2018-Jun-13 17:28N 33°46' W 118°16'0 0.0
2018-Jun-13 16:58N 33°46' W 118°16'0 0.0
2018-Jun-13 16:28N 33°46' W 118°16'0 0.0
2018-Jun-13 15:55N 33°46' W 118°16'0 0.0
2018-Jun-13 15:28N 33°46' W 118°16'0 0.0
2018-Jun-13 14:58N 33°46' W 118°16'0 0.0
2018-Jun-13 14:28N 33°46' W 118°16'0 0.0
2018-Jun-13 13:58N 33°46' W 118°16'0 0.1
2018-Jun-13 13:28N 33°46' W 118°16'0 0.1
2018-Jun-13 12:58N 33°46' W 118°16'0 0.0
2018-Jun-13 12:28N 33°46' W 118°16'0 0.0
2018-Jun-13 11:58N 33°46' W 118°16'0 0.1
2018-Jun-13 11:28N 33°46' W 118°16'0 0.1
2018-Jun-13 10:58N 33°46' W 118°16'0 0.0
2018-Jun-13 10:28N 33°46' W 118°16'0 0.0
2018-Jun-13 09:58N 33°46' W 118°16'0 0.0
2018-Jun-13 09:28N 33°46' W 118°16'0 0.0
2018-Jun-13 08:58N 33°46' W 118°16'0 0.0
2018-Jun-13 08:28N 33°46' W 118°16'0 0.0
2018-Jun-13 07:58N 33°46' W 118°16'0 0.0
2018-Jun-13 07:28N 33°46' W 118°16'0 0.0
2018-Jun-13 06:58N 33°46' W 118°16'0 0.0
2018-Jun-13 06:28N 33°46' W 118°16'0 0.0
2018-Jun-13 05:58N 33°46' W 118°16'0 0.1
2018-Jun-13 05:28N 33°46' W 118°16'0 0.0
2018-Jun-13 04:58N 33°46' W 118°16'0 0.1
2018-Jun-13 04:28N 33°46' W 118°16'0 0.0
2018-Jun-13 03:58N 33°46' W 118°16'0 0.0
2018-Jun-13 03:28N 33°46' W 118°16'0 0.0
2018-Jun-13 02:58N 33°46' W 118°16'0 0.0
2018-Jun-13 02:28N 33°46' W 118°16'0 0.0
2018-Jun-13 01:58N 33°46' W 118°16'0 0.0
2018-Jun-13 01:28N 33°46' W 118°16'0 0.0
2018-Jun-13 00:58N 33°46' W 118°16'0 0.0
2018-Jun-13 00:28N 33°46' W 118°16'0 0.0
2018-Jun-12 23:58N 33°46' W 118°16'0 0.1
2018-Jun-12 23:28N 33°46' W 118°16'0 0.1
2018-Jun-12 22:58N 33°46' W 118°16'0 0.0
2018-Jun-12 22:28N 33°46' W 118°16'0 0.0
2018-Jun-12 21:58N 33°46' W 118°16'0 0.0
2018-Jun-12 21:28N 33°46' W 118°16'0 0.0
2018-Jun-12 20:58N 33°46' W 118°16'0 0.0
2018-Jun-12 20:28N 33°46' W 118°16'0 0.1
2018-Jun-12 19:58N 33°46' W 118°16'0 0.0
2018-Jun-12 19:28N 33°46' W 118°16'0 0.0
2018-Jun-12 18:58N 33°46' W 118°16'0 0.1
2018-Jun-12 18:28N 33°46' W 118°16'0 0.0
2018-Jun-12 17:58N 33°46' W 118°16'0 0.0
2018-Jun-12 17:28N 33°46' W 118°16'0 0.0
2018-Jun-12 16:58N 33°46' W 118°16'0 0.0
2018-Jun-12 16:28N 33°46' W 118°16'0 0.0
2018-Jun-12 15:58N 33°46' W 118°16'0 0.1
2018-Jun-12 15:28N 33°46' W 118°16'0 0.1
2018-Jun-12 14:58N 33°46' W 118°16'0 0.0
2018-Jun-12 14:28N 33°46' W 118°16'0 0.0
2018-Jun-12 13:58N 33°46' W 118°16'0 0.0
2018-Jun-12 13:28N 33°46' W 118°16'0 0.0
2018-Jun-12 12:58N 33°46' W 118°16'0 0.0
2018-Jun-12 12:31N 33°46' W 118°16'0 0.5
2018-Jun-12 12:00N 33°45' W 118°17'1 2.1
2018-Jun-12 11:30N 33°44' W 118°17'3 6.3
2018-Jun-12 11:01N 33°42' W 118°14'4 7.8
2018-Jun-12 10:30N 33°38' W 118°14'4 8.5
2018-Jun-12 10:00N 33°36' W 118°18'510.9
2018-Jun-12 09:30N 33°38' W 118°25'713.2
2018-Jun-12 09:00N 33°41' W 118°31'612.3
2018-Jun-12 08:30N 33°44' W 118°38'612.4
2018-Jun-12 08:00N 33°47' W 118°44'713.2
2018-Jun-12 07:30N 33°51' W 118°52'612.9
2018-Jun-12 07:00N 33°54' W 118°58'613.3
2018-Jun-12 06:30N 33°57' W 119°05'713.7
2018-Jun-12 06:00N 34°00' W 119°12'815.0
2018-Jun-12 05:29N 34°03' W 119°21'715.0
2018-Jun-12 05:00N 34°06' W 119°29'713.9
2018-Jun-12 04:30N 34°07' W 119°37'814.6
2018-Jun-12 03:58N 34°09' W 119°46'715.2
2018-Jun-12 03:30N 34°11' W 119°55'714.3
2018-Jun-12 03:00N 34°13' W 120°03'713.9
2018-Jun-12 02:30N 34°15' W 120°11'713.9
2018-Jun-12 02:00N 34°17' W 120°19'714.0
2018-Jun-12 01:30N 34°19' W 120°27'814.1
2018-Jun-12 00:58N 34°21' W 120°36'613.7
2018-Jun-12 00:30N 34°22' W 120°44'612.3
2018-Jun-12 00:00N 34°24' W 120°51'713.5
2018-Jun-11 23:29N 34°28' W 120°58'714.0
2018-Jun-11 23:00N 34°32' W 121°04'714.2
2018-Jun-11 22:30N 34°37' W 121°11'714.0
2018-Jun-11 22:00N 34°41' W 121°18'713.7
2018-Jun-11 21:30N 34°45' W 121°25'713.7
2018-Jun-11 21:00N 34°49' W 121°31'714.0
2018-Jun-11 20:30N 34°53' W 121°38'714.1
2018-Jun-11 20:00N 34°57' W 121°45'918.5
2018-Jun-11 19:30N 35°03' W 121°54'1019.6
2018-Jun-11 19:00N 35°09' W 122°04'816.7
2018-Jun-11 18:31N 35°14' W 122°11'1 2.2
2018-Jun-11 18:00N 35°14' W 122°13'2 4.2
2018-Jun-11 17:30N 35°15' W 122°15'5 9.4
2018-Jun-11 17:00N 35°18' W 122°20'1018.3
2018-Jun-11 16:29N 35°23' W 122°30'1022.0
2018-Jun-11 16:00N 35°29' W 122°40'  

Dump ship's entire track history